sensor_id;sensor_type;location;lat;lon;timestamp;pressure;altitude;pressure_sealevel;temperature;humidity
56737;BME280;42618;51.226;4.910;2023-07-20T00:02:23;49635.31;;;-146.94;92.08
56737;BME280;42618;51.226;4.910;2023-07-20T00:04:50;49627.31;;;-146.94;92.15
56737;BME280;42618;51.226;4.910;2023-07-20T00:07:17;49577.50;;;-146.94;91.99
56737;BME280;42618;51.226;4.910;2023-07-20T00:09:44;49553.56;;;-146.94;91.33
56737;BME280;42618;51.226;4.910;2023-07-20T00:12:10;49615.38;;;-146.94;91.52
56737;BME280;42618;51.226;4.910;2023-07-20T00:14:37;49595.44;;;-146.94;91.66
56737;BME280;42618;51.226;4.910;2023-07-20T00:17:04;49607.41;;;-146.94;91.85
56737;BME280;42618;51.226;4.910;2023-07-20T00:19:31;49601.41;;;-146.94;91.64
56737;BME280;42618;51.226;4.910;2023-07-20T00:21:58;49629.31;;;-146.94;91.40
56737;BME280;42618;51.226;4.910;2023-07-20T00:24:26;49593.44;;;-146.94;91.50
56737;BME280;42618;51.226;4.910;2023-07-20T00:26:53;49597.44;;;-146.94;91.75
56737;BME280;42618;51.226;4.910;2023-07-20T00:29:19;49633.31;;;-146.94;91.79
56737;BME280;42618;51.226;4.910;2023-07-20T00:31:46;49605.41;;;-146.94;91.94
56737;BME280;42618;51.226;4.910;2023-07-20T00:34:15;49595.44;;;-146.94;91.44
56737;BME280;42618;51.226;4.910;2023-07-20T00:36:41;49611.38;;;-146.94;90.99
56737;BME280;42618;51.226;4.910;2023-07-20T00:39:09;49651.25;;;-146.94;90.92
56737;BME280;42618;51.226;4.910;2023-07-20T00:41:35;49571.50;;;-146.94;90.98
56737;BME280;42618;51.226;4.910;2023-07-20T00:44:02;49579.47;;;-146.94;91.32
56737;BME280;42618;51.226;4.910;2023-07-20T00:46:29;49563.53;;;-146.94;91.68
56737;BME280;42618;51.226;4.910;2023-07-20T00:48:56;49577.50;;;-146.94;91.15
56737;BME280;42618;51.226;4.910;2023-07-20T00:51:25;49637.28;;;-146.94;91.48
56737;BME280;42618;51.226;4.910;2023-07-20T00:53:53;49615.38;;;-146.94;91.60
56737;BME280;42618;51.226;4.910;2023-07-20T00:56:21;49601.41;;;-146.94;91.35
56737;BME280;42618;51.226;4.910;2023-07-20T00:58:49;49591.44;;;-146.94;92.10
56737;BME280;42618;51.226;4.910;2023-07-20T01:01:16;49623.34;;;-146.94;92.04
56737;BME280;42618;51.226;4.910;2023-07-20T01:03:42;49615.38;;;-146.94;92.18
56737;BME280;42618;51.226;4.910;2023-07-20T01:06:15;49627.31;;;-146.94;92.33
56737;BME280;42618;51.226;4.910;2023-07-20T01:11:16;49589.44;;;-146.94;92.48
56737;BME280;42618;51.226;4.910;2023-07-20T01:13:44;49591.44;;;-146.94;92.41
56737;BME280;42618;51.226;4.910;2023-07-20T01:16:11;49601.41;;;-146.94;93.34
56737;BME280;42618;51.226;4.910;2023-07-20T01:18:38;49633.31;;;-146.94;92.63
56737;BME280;42618;51.226;4.910;2023-07-20T01:21:09;49627.31;;;-146.94;93.56
56737;BME280;42618;51.226;4.910;2023-07-20T01:26:32;49597.44;;;-146.94;93.04
56737;BME280;42618;51.226;4.910;2023-07-20T01:31:45;49589.44;;;-146.94;93.63
56737;BME280;42618;51.226;4.910;2023-07-20T01:34:17;49639.28;;;-146.94;93.67
56737;BME280;42618;51.226;4.910;2023-07-20T01:36:45;49619.34;;;-146.94;94.07
56737;BME280;42618;51.226;4.910;2023-07-20T01:39:12;49627.31;;;-146.94;94.67
56737;BME280;42618;51.226;4.910;2023-07-20T01:41:39;49607.41;;;-146.94;94.60
56737;BME280;42618;51.226;4.910;2023-07-20T01:44:06;49615.38;;;-146.94;94.86
56737;BME280;42618;51.226;4.910;2023-07-20T01:46:33;49615.38;;;-146.94;95.42
56737;BME280;42618;51.226;4.910;2023-07-20T01:49:00;49609.38;;;-146.94;95.47
56737;BME280;42618;51.226;4.910;2023-07-20T01:51:30;49641.28;;;-146.94;95.56
56737;BME280;42618;51.226;4.910;2023-07-20T01:53:57;49609.38;;;-146.94;96.04
56737;BME280;42618;51.226;4.910;2023-07-20T01:56:24;49621.34;;;-146.94;95.92
56737;BME280;42618;51.226;4.910;2023-07-20T01:58:51;49631.31;;;-146.94;96.21
56737;BME280;42618;51.226;4.910;2023-07-20T02:01:18;49625.34;;;-146.94;96.73
56737;BME280;42618;51.226;4.910;2023-07-20T02:03:44;49625.34;;;-146.94;96.98
56737;BME280;42618;51.226;4.910;2023-07-20T02:06:11;49635.31;;;-146.94;97.48
56737;BME280;42618;51.226;4.910;2023-07-20T02:08:38;49653.25;;;-146.94;97.68
56737;BME280;42618;51.226;4.910;2023-07-20T02:11:04;49625.34;;;-146.94;98.20
56737;BME280;42618;51.226;4.910;2023-07-20T02:13:31;49627.31;;;-146.94;98.86
56737;BME280;42618;51.226;4.910;2023-07-20T02:15:58;49625.34;;;-146.94;98.50
56737;BME280;42618;51.226;4.910;2023-07-20T02:18:25;49597.44;;;-146.94;98.20
56737;BME280;42618;51.226;4.910;2023-07-20T02:20:53;49641.28;;;-146.94;98.42
56737;BME280;42618;51.226;4.910;2023-07-20T02:23:20;49599.41;;;-146.94;98.46
56737;BME280;42618;51.226;4.910;2023-07-20T02:25:47;49611.38;;;-146.94;98.45
56737;BME280;42618;51.226;4.910;2023-07-20T02:28:14;49623.34;;;-146.94;98.34
56737;BME280;42618;51.226;4.910;2023-07-20T02:30:41;49601.41;;;-146.94;98.59
56737;BME280;42618;51.226;4.910;2023-07-20T02:33:08;49667.19;;;-146.94;99.15
56737;BME280;42618;51.226;4.910;2023-07-20T02:35:35;49647.25;;;-146.94;99.27
56737;BME280;42618;51.226;4.910;2023-07-20T02:38:02;49647.25;;;-146.94;98.75
56737;BME280;42618;51.226;4.910;2023-07-20T02:40:29;49619.34;;;-146.94;98.27
56737;BME280;42618;51.226;4.910;2023-07-20T02:42:56;49629.31;;;-146.94;98.33
56737;BME280;42618;51.226;4.910;2023-07-20T02:45:23;49603.41;;;-146.94;97.95
56737;BME280;42618;51.226;4.910;2023-07-20T02:47:50;49601.41;;;-146.94;98.00
56737;BME280;42618;51.226;4.910;2023-07-20T02:50:17;49639.28;;;-146.94;98.28
56737;BME280;42618;51.226;4.910;2023-07-20T02:52:44;49629.31;;;-146.94;98.56
56737;BME280;42618;51.226;4.910;2023-07-20T02:55:11;49627.31;;;-146.94;97.99
56737;BME280;42618;51.226;4.910;2023-07-20T02:57:38;49633.31;;;-146.94;97.90
56737;BME280;42618;51.226;4.910;2023-07-20T03:00:06;49607.41;;;-146.94;97.40
56737;BME280;42618;51.226;4.910;2023-07-20T03:02:33;49609.38;;;-146.94;97.63
56737;BME280;42618;51.226;4.910;2023-07-20T03:05:00;49655.25;;;-146.94;97.58
56737;BME280;42618;51.226;4.910;2023-07-20T03:07:28;49627.31;;;-146.94;97.83
56737;BME280;42618;51.226;4.910;2023-07-20T03:09:55;49607.41;;;-146.94;98.51
56737;BME280;42618;51.226;4.910;2023-07-20T03:12:22;49613.38;;;-146.94;98.63
56737;BME280;42618;51.226;4.910;2023-07-20T03:14:48;49639.28;;;-146.94;99.32
56737;BME280;42618;51.226;4.910;2023-07-20T03:17:15;49623.34;;;-146.94;99.58
56737;BME280;42618;51.226;4.910;2023-07-20T03:19:44;49651.25;;;-146.94;99.78
56737;BME280;42618;51.226;4.910;2023-07-20T03:22:11;49641.28;;;-146.94;99.11
56737;BME280;42618;51.226;4.910;2023-07-20T03:24:38;49607.41;;;-146.94;99.79
56737;BME280;42618;51.226;4.910;2023-07-20T03:27:05;49617.38;;;-146.94;99.07
56737;BME280;42618;51.226;4.910;2023-07-20T03:29:32;49639.28;;;-146.94;98.55
56737;BME280;42618;51.226;4.910;2023-07-20T03:32:00;49635.31;;;-146.94;97.90
56737;BME280;42618;51.226;4.910;2023-07-20T03:34:26;49623.34;;;-146.94;97.90
56737;BME280;42618;51.226;4.910;2023-07-20T03:36:53;49647.25;;;-146.94;97.29
56737;BME280;42618;51.226;4.910;2023-07-20T03:39:20;49641.28;;;-146.94;98.04
56737;BME280;42618;51.226;4.910;2023-07-20T03:41:48;49671.19;;;-146.94;97.34
56737;BME280;42618;51.226;4.910;2023-07-20T03:44:15;49623.34;;;-146.94;97.31
56737;BME280;42618;51.226;4.910;2023-07-20T03:46:42;49623.34;;;-146.94;97.04
56737;BME280;42618;51.226;4.910;2023-07-20T03:49:09;49643.28;;;-146.94;97.62
56737;BME280;42618;51.226;4.910;2023-07-20T03:51:36;49633.31;;;-146.94;98.13
56737;BME280;42618;51.226;4.910;2023-07-20T03:54:03;49615.38;;;-146.94;97.90
56737;BME280;42618;51.226;4.910;2023-07-20T03:56:30;49635.31;;;-146.94;97.93
56737;BME280;42618;51.226;4.910;2023-07-20T03:59:01;49633.31;;;-146.94;97.82
56737;BME280;42618;51.226;4.910;2023-07-20T04:01:28;49599.41;;;-146.94;98.74
56737;BME280;42618;51.226;4.910;2023-07-20T04:03:55;49629.31;;;-146.94;98.40
56737;BME280;42618;51.226;4.910;2023-07-20T04:06:22;49659.22;;;-146.94;98.10
56737;BME280;42618;51.226;4.910;2023-07-20T04:08:49;49631.31;;;-146.94;97.70
56737;BME280;42618;51.226;4.910;2023-07-20T04:11:16;49653.25;;;-146.94;98.21
56737;BME280;42618;51.226;4.910;2023-07-20T04:13:43;49667.19;;;-146.94;98.61
56737;BME280;42618;51.226;4.910;2023-07-20T04:16:10;49647.25;;;-146.94;98.00
56737;BME280;42618;51.226;4.910;2023-07-20T04:18:36;49647.25;;;-146.94;97.97
56737;BME280;42618;51.226;4.910;2023-07-20T04:21:03;49645.28;;;-146.94;97.94
56737;BME280;42618;51.226;4.910;2023-07-20T04:23:30;49631.31;;;-146.94;97.51
56737;BME280;42618;51.226;4.910;2023-07-20T04:25:57;49675.19;;;-146.94;97.33
56737;BME280;42618;51.226;4.910;2023-07-20T04:28:24;49649.25;;;-146.94;97.02
56737;BME280;42618;51.226;4.910;2023-07-20T04:30:52;49655.25;;;-146.94;97.06
56737;BME280;42618;51.226;4.910;2023-07-20T04:33:18;49643.28;;;-146.94;97.75
56737;BME280;42618;51.226;4.910;2023-07-20T04:35:47;49687.13;;;-146.94;97.80
56737;BME280;42618;51.226;4.910;2023-07-20T04:38:18;49621.34;;;-146.94;97.41
56737;BME280;42618;51.226;4.910;2023-07-20T04:40:49;49655.25;;;-146.94;97.17
56737;BME280;42618;51.226;4.910;2023-07-20T04:43:17;49599.41;;;-146.94;97.00
56737;BME280;42618;51.226;4.910;2023-07-20T04:45:44;49667.19;;;-146.94;96.51
56737;BME280;42618;51.226;4.910;2023-07-20T04:48:13;49635.31;;;-146.94;96.05
56737;BME280;42618;51.226;4.910;2023-07-20T04:50:47;49639.28;;;-146.94;96.06
56737;BME280;42618;51.226;4.910;2023-07-20T04:53:14;49633.31;;;-146.94;95.85
56737;BME280;42618;51.226;4.910;2023-07-20T04:55:48;49633.31;;;-146.94;95.92
56737;BME280;42618;51.226;4.910;2023-07-20T04:58:19;49657.22;;;-146.94;95.69
56737;BME280;42618;51.226;4.910;2023-07-20T05:00:51;49651.25;;;-146.94;95.36
56737;BME280;42618;51.226;4.910;2023-07-20T05:03:18;49645.28;;;-146.94;95.43
56737;BME280;42618;51.226;4.910;2023-07-20T05:05:47;49607.41;;;-146.94;95.00
56737;BME280;42618;51.226;4.910;2023-07-20T05:08:16;49655.25;;;-146.94;95.04
56737;BME280;42618;51.226;4.910;2023-07-20T05:10:43;49609.38;;;-146.94;95.24
56737;BME280;42618;51.226;4.910;2023-07-20T05:13:10;49645.28;;;-146.94;95.16
56737;BME280;42618;51.226;4.910;2023-07-20T05:15:36;49597.44;;;-146.94;95.20
56737;BME280;42618;51.226;4.910;2023-07-20T05:18:05;49625.34;;;-146.94;94.86
56737;BME280;42618;51.226;4.910;2023-07-20T05:20:32;49643.28;;;-146.94;94.08
56737;BME280;42618;51.226;4.910;2023-07-20T05:23:00;49633.31;;;-146.94;93.83
56737;BME280;42618;51.226;4.910;2023-07-20T05:25:27;49605.41;;;-146.94;93.46
56737;BME280;42618;51.226;4.910;2023-07-20T05:27:57;49643.28;;;-146.94;93.64
56737;BME280;42618;51.226;4.910;2023-07-20T05:30:23;49645.28;;;-146.94;93.38
56737;BME280;42618;51.226;4.910;2023-07-20T05:32:50;49627.31;;;-146.94;93.41
56737;BME280;42618;51.226;4.910;2023-07-20T05:35:19;49599.41;;;-146.94;93.31
56737;BME280;42618;51.226;4.910;2023-07-20T05:37:46;49605.41;;;-146.94;93.01
56737;BME280;42618;51.226;4.910;2023-07-20T05:40:14;49637.28;;;-146.94;92.88
56737;BME280;42618;51.226;4.910;2023-07-20T05:42:48;49609.38;;;-146.94;93.13
56737;BME280;42618;51.226;4.910;2023-07-20T05:45:18;49643.28;;;-146.94;93.05
56737;BME280;42618;51.226;4.910;2023-07-20T05:47:45;49623.34;;;-146.94;92.53
56737;BME280;42618;51.226;4.910;2023-07-20T05:50:12;49623.34;;;-146.94;91.72
56737;BME280;42618;51.226;4.910;2023-07-20T05:52:39;49623.34;;;-146.94;90.54
56737;BME280;42618;51.226;4.910;2023-07-20T05:55:07;49603.41;;;-146.94;91.81
56737;BME280;42618;51.226;4.910;2023-07-20T05:57:34;49587.47;;;-146.94;90.98
56737;BME280;42618;51.226;4.910;2023-07-20T06:00:02;49607.41;;;-146.94;90.60
56737;BME280;42618;51.226;4.910;2023-07-20T06:02:37;49599.41;;;-146.94;89.15
56737;BME280;42618;51.226;4.910;2023-07-20T06:05:05;49603.41;;;-146.94;88.80
56737;BME280;42618;51.226;4.910;2023-07-20T06:07:31;49603.41;;;-146.94;88.18
56737;BME280;42618;51.226;4.910;2023-07-20T06:09:58;49623.34;;;-146.94;87.79
56737;BME280;42618;51.226;4.910;2023-07-20T06:12:25;49581.47;;;-146.94;87.62
56737;BME280;42618;51.226;4.910;2023-07-20T06:14:52;49615.38;;;-146.94;86.58
56737;BME280;42618;51.226;4.910;2023-07-20T06:17:19;49639.28;;;-146.94;83.68
56737;BME280;42618;51.226;4.910;2023-07-20T06:19:45;49589.44;;;-146.94;82.72
56737;BME280;42618;51.226;4.910;2023-07-20T06:22:12;49615.38;;;-146.94;82.78
56737;BME280;42618;51.226;4.910;2023-07-20T06:24:39;49601.41;;;-146.94;82.76
56737;BME280;42618;51.226;4.910;2023-07-20T06:27:06;49609.38;;;-146.94;83.22
56737;BME280;42618;51.226;4.910;2023-07-20T06:29:32;49603.41;;;-146.94;81.73
56737;BME280;42618;51.226;4.910;2023-07-20T06:31:59;49615.38;;;-146.94;81.31
56737;BME280;42618;51.226;4.910;2023-07-20T06:34:26;49619.34;;;-146.94;80.84
56737;BME280;42618;51.226;4.910;2023-07-20T06:36:52;49595.44;;;-146.94;79.79
56737;BME280;42618;51.226;4.910;2023-07-20T06:39:19;49575.50;;;-146.94;79.19
56737;BME280;42618;51.226;4.910;2023-07-20T06:41:49;49619.34;;;-146.94;77.48
56737;BME280;42618;51.226;4.910;2023-07-20T06:44:17;49595.44;;;-146.94;77.32
56737;BME280;42618;51.226;4.910;2023-07-20T06:46:43;49567.53;;;-146.94;74.99
56737;BME280;42618;51.226;4.910;2023-07-20T06:49:24;49603.41;;;-146.94;76.29
56737;BME280;42618;51.226;4.910;2023-07-20T06:51:51;49581.47;;;-146.94;76.16
56737;BME280;42618;51.226;4.910;2023-07-20T06:54:18;49577.50;;;-146.94;76.71
56737;BME280;42618;51.226;4.910;2023-07-20T06:56:49;49549.59;;;-146.94;75.22
56737;BME280;42618;51.226;4.910;2023-07-20T06:59:36;49559.56;;;-146.94;73.69
56737;BME280;42618;51.226;4.910;2023-07-20T07:02:07;49571.50;;;-146.94;71.95
56737;BME280;42618;51.226;4.910;2023-07-20T07:04:40;49551.56;;;-146.94;69.96
56737;BME280;42618;51.226;4.910;2023-07-20T07:07:07;49571.50;;;-146.94;70.33
56737;BME280;42618;51.226;4.910;2023-07-20T07:09:35;49587.47;;;-146.94;69.51
56737;BME280;42618;51.226;4.910;2023-07-20T07:12:03;49577.50;;;-146.94;70.58
56737;BME280;42618;51.226;4.910;2023-07-20T07:14:30;49587.47;;;-146.94;67.95
56737;BME280;42618;51.226;4.910;2023-07-20T07:16:59;49591.44;;;-146.94;67.66
56737;BME280;42618;51.226;4.910;2023-07-20T07:19:30;49599.41;;;-146.94;67.10
56737;BME280;42618;51.226;4.910;2023-07-20T07:21:57;49611.38;;;-146.94;67.56
56737;BME280;42618;51.226;4.910;2023-07-20T07:24:26;49549.59;;;-146.94;66.79
56737;BME280;42618;51.226;4.910;2023-07-20T07:26:55;49603.41;;;-146.94;66.26
56737;BME280;42618;51.226;4.910;2023-07-20T07:29:22;49581.47;;;-146.94;64.30
56737;BME280;42618;51.226;4.910;2023-07-20T07:31:49;49503.72;;;-146.94;65.38
56737;BME280;42618;51.226;4.910;2023-07-20T07:34:15;49563.53;;;-146.94;63.51
56737;BME280;42618;51.226;4.910;2023-07-20T07:36:43;49545.59;;;-146.94;62.81
56737;BME280;42618;51.226;4.910;2023-07-20T07:39:10;49535.63;;;-146.94;62.23
56737;BME280;42618;51.226;4.910;2023-07-20T07:41:39;49531.63;;;-146.94;57.49
56737;BME280;42618;51.226;4.910;2023-07-20T07:44:06;49531.63;;;-146.94;58.96
56737;BME280;42618;51.226;4.910;2023-07-20T07:46:33;49561.53;;;-146.94;59.99
56737;BME280;42618;51.226;4.910;2023-07-20T07:49:00;49535.63;;;-146.94;58.38
56737;BME280;42618;51.226;4.910;2023-07-20T07:51:27;49543.59;;;-146.94;59.04
56737;BME280;42618;51.226;4.910;2023-07-20T07:53:54;49539.63;;;-146.94;59.74
56737;BME280;42618;51.226;4.910;2023-07-20T07:56:21;49579.47;;;-146.94;59.46
56737;BME280;42618;51.226;4.910;2023-07-20T07:58:51;49579.47;;;-146.94;60.79
56737;BME280;42618;51.226;4.910;2023-07-20T08:01:18;49597.44;;;-146.94;58.71
56737;BME280;42618;51.226;4.910;2023-07-20T08:03:49;49515.69;;;-146.94;59.63
56737;BME280;42618;51.226;4.910;2023-07-20T08:06:16;49543.59;;;-146.94;56.40
56737;BME280;42618;51.226;4.910;2023-07-20T08:08:43;49529.66;;;-146.94;56.86
56737;BME280;42618;51.226;4.910;2023-07-20T08:11:10;49579.47;;;-146.94;57.74
56737;BME280;42618;51.226;4.910;2023-07-20T08:13:38;49543.59;;;-146.94;59.50
56737;BME280;42618;51.226;4.910;2023-07-20T08:16:05;49565.53;;;-146.94;59.26
56737;BME280;42618;51.226;4.910;2023-07-20T08:18:31;49581.47;;;-146.94;61.12
56737;BME280;42618;51.226;4.910;2023-07-20T08:20:58;49555.56;;;-146.94;61.42
56737;BME280;42618;51.226;4.910;2023-07-20T08:23:25;49553.56;;;-146.94;59.38
56737;BME280;42618;51.226;4.910;2023-07-20T08:25:54;49579.47;;;-146.94;59.73
56737;BME280;42618;51.226;4.910;2023-07-20T08:28:20;49571.50;;;-146.94;61.62
56737;BME280;42618;51.226;4.910;2023-07-20T08:30:48;49565.53;;;-146.94;61.73
56737;BME280;42618;51.226;4.910;2023-07-20T08:33:16;49583.47;;;-146.94;62.01
56737;BME280;42618;51.226;4.910;2023-07-20T08:35:45;49539.63;;;-146.94;60.57
56737;BME280;42618;51.226;4.910;2023-07-20T08:38:12;49563.53;;;-146.94;54.66
56737;BME280;42618;51.226;4.910;2023-07-20T08:40:41;49545.59;;;-146.94;53.70
56737;BME280;42618;51.226;4.910;2023-07-20T08:43:10;49511.72;;;-146.94;52.75
56737;BME280;42618;51.226;4.910;2023-07-20T08:45:38;49571.50;;;-146.94;52.73
56737;BME280;42618;51.226;4.910;2023-07-20T08:48:06;49551.56;;;-146.94;59.53
56737;BME280;42618;51.226;4.910;2023-07-20T08:50:33;49527.66;;;-146.94;51.82
56737;BME280;42618;51.226;4.910;2023-07-20T08:53:02;49539.63;;;-146.94;49.53
56737;BME280;42618;51.226;4.910;2023-07-20T08:55:30;49507.72;;;-146.94;48.22
56737;BME280;42618;51.226;4.910;2023-07-20T08:57:58;49525.66;;;-146.94;49.29
56737;BME280;42618;51.226;4.910;2023-07-20T09:00:26;49539.63;;;-146.94;51.14
56737;BME280;42618;51.226;4.910;2023-07-20T09:02:56;49545.59;;;-146.94;52.71
56737;BME280;42618;51.226;4.910;2023-07-20T09:05:24;49561.53;;;-146.94;49.30
56737;BME280;42618;51.226;4.910;2023-07-20T09:07:53;49523.66;;;-146.94;48.39
56737;BME280;42618;51.226;4.910;2023-07-20T09:10:21;49553.56;;;-146.94;57.50
56737;BME280;42618;51.226;4.910;2023-07-20T09:12:48;49553.56;;;-146.94;52.36
56737;BME280;42618;51.226;4.910;2023-07-20T09:15:15;49561.53;;;-146.94;48.96
56737;BME280;42618;51.226;4.910;2023-07-20T09:17:46;49547.59;;;-146.94;48.66
56737;BME280;42618;51.226;4.910;2023-07-20T09:20:15;49557.56;;;-146.94;49.13
56737;BME280;42618;51.226;4.910;2023-07-20T09:22:47;49521.69;;;-146.94;50.24
56737;BME280;42618;51.226;4.910;2023-07-20T09:25:15;49523.66;;;-146.94;53.12
56737;BME280;42618;51.226;4.910;2023-07-20T09:27:44;49531.63;;;-146.94;50.91
56737;BME280;42618;51.226;4.910;2023-07-20T09:30:12;49547.59;;;-146.94;48.69
56737;BME280;42618;51.226;4.910;2023-07-20T09:32:48;49521.69;;;-146.94;50.68
56737;BME280;42618;51.226;4.910;2023-07-20T09:35:21;49531.63;;;-146.94;50.81
56737;BME280;42618;51.226;4.910;2023-07-20T09:40:41;49539.63;;;-146.94;44.11
56737;BME280;42618;51.226;4.910;2023-07-20T09:43:11;49503.72;;;-146.94;43.10
56737;BME280;42618;51.226;4.910;2023-07-20T09:45:42;49479.81;;;-146.94;48.30
56737;BME280;42618;51.226;4.910;2023-07-20T09:48:11;49483.81;;;-146.94;40.69
56737;BME280;42618;51.226;4.910;2023-07-20T09:50:50;49487.78;;;-146.94;43.64
56737;BME280;42618;51.226;4.910;2023-07-20T09:53:18;49473.84;;;-146.94;40.54
56737;BME280;42618;51.226;4.910;2023-07-20T09:55:46;49493.75;;;-146.94;44.70
56737;BME280;42618;51.226;4.910;2023-07-20T09:58:14;49497.75;;;-146.94;39.49
56737;BME280;42618;51.226;4.910;2023-07-20T10:00:42;49507.72;;;-146.94;41.52
56737;BME280;42618;51.226;4.910;2023-07-20T10:03:20;49501.75;;;-146.94;44.61
56737;BME280;42618;51.226;4.910;2023-07-20T10:05:59;49499.75;;;-146.94;42.48
56737;BME280;42618;51.226;4.910;2023-07-20T10:08:29;49467.84;;;-146.94;42.63
56737;BME280;42618;51.226;4.910;2023-07-20T10:11:00;49535.63;;;-146.94;38.38
56737;BME280;42618;51.226;4.910;2023-07-20T10:13:29;49467.84;;;-146.94;37.06
56737;BME280;42618;51.226;4.910;2023-07-20T10:16:09;49507.72;;;-146.94;40.94
56737;BME280;42618;51.226;4.910;2023-07-20T10:18:50;49471.84;;;-146.94;38.39
56737;BME280;42618;51.226;4.910;2023-07-20T10:21:19;49465.84;;;-146.94;39.43
56737;BME280;42618;51.226;4.910;2023-07-20T10:23:49;49467.84;;;-146.94;35.73
56737;BME280;42618;51.226;4.910;2023-07-20T10:26:16;49509.72;;;-146.94;35.97
56737;BME280;42618;51.226;4.910;2023-07-20T10:28:43;49521.69;;;-146.94;38.16
56737;BME280;42618;51.226;4.910;2023-07-20T10:31:12;49519.69;;;-146.94;38.16
56737;BME280;42618;51.226;4.910;2023-07-20T10:33:39;49515.69;;;-146.94;39.26
56737;BME280;42618;51.226;4.910;2023-07-20T10:36:06;49479.81;;;-146.94;39.31
56737;BME280;42618;51.226;4.910;2023-07-20T10:41:37;49509.72;;;-146.94;36.96
56737;BME280;42618;51.226;4.910;2023-07-20T10:44:07;49473.84;;;-146.94;37.04
56737;BME280;42618;51.226;4.910;2023-07-20T10:46:41;49491.78;;;-146.94;37.72
56737;BME280;42618;51.226;4.910;2023-07-20T10:49:11;49485.78;;;-146.94;37.48
56737;BME280;42618;51.226;4.910;2023-07-20T10:56:44;49491.78;;;-146.94;38.48
56737;BME280;42618;51.226;4.910;2023-07-20T11:01:57;49487.78;;;-146.94;38.88
56737;BME280;42618;51.226;4.910;2023-07-20T11:04:44;49483.81;;;-146.94;38.48
56737;BME280;42618;51.226;4.910;2023-07-20T11:07:15;49477.81;;;-146.94;38.73
56737;BME280;42618;51.226;4.910;2023-07-20T11:09:43;49481.81;;;-146.94;37.77
56737;BME280;42618;51.226;4.910;2023-07-20T11:12:17;49513.69;;;-146.94;36.50
56737;BME280;42618;51.226;4.910;2023-07-20T11:14:56;49523.66;;;-146.94;37.11
56737;BME280;42618;51.226;4.910;2023-07-20T11:17:32;49473.84;;;-146.94;38.14
56737;BME280;42618;51.226;4.910;2023-07-20T11:20:00;49489.78;;;-146.94;36.75
56737;BME280;42618;51.226;4.910;2023-07-20T11:22:31;49483.81;;;-146.94;37.60
56737;BME280;42618;51.226;4.910;2023-07-20T11:24:58;49499.75;;;-146.94;36.48
56737;BME280;42618;51.226;4.910;2023-07-20T11:27:25;49435.97;;;-146.94;37.08
56737;BME280;42618;51.226;4.910;2023-07-20T11:29:52;49481.81;;;-146.94;36.78
56737;BME280;42618;51.226;4.910;2023-07-20T11:32:23;49501.75;;;-146.94;37.31
56737;BME280;42618;51.226;4.910;2023-07-20T11:34:50;49499.75;;;-146.94;37.99
56737;BME280;42618;51.226;4.910;2023-07-20T11:37:17;49475.81;;;-146.94;38.12
56737;BME280;42618;51.226;4.910;2023-07-20T11:39:47;49481.81;;;-146.94;38.18
56737;BME280;42618;51.226;4.910;2023-07-20T11:42:14;49475.81;;;-146.94;38.75
56737;BME280;42618;51.226;4.910;2023-07-20T11:45:05;49531.63;;;-146.94;38.60
56737;BME280;42618;51.226;4.910;2023-07-20T11:47:33;49487.78;;;-146.94;39.56
56737;BME280;42618;51.226;4.910;2023-07-20T11:50:03;49499.75;;;-146.94;39.06
56737;BME280;42618;51.226;4.910;2023-07-20T11:52:31;49479.81;;;-146.94;39.10
56737;BME280;42618;51.226;4.910;2023-07-20T11:54:58;49495.75;;;-146.94;39.25
56737;BME280;42618;51.226;4.910;2023-07-20T11:57:25;49483.81;;;-146.94;38.94
56737;BME280;42618;51.226;4.910;2023-07-20T11:59:57;49491.78;;;-146.94;38.78
56737;BME280;42618;51.226;4.910;2023-07-20T12:02:28;49511.72;;;-146.94;38.96
56737;BME280;42618;51.226;4.910;2023-07-20T12:04:56;49455.88;;;-146.94;39.23
56737;BME280;42618;51.226;4.910;2023-07-20T12:07:25;49495.75;;;-146.94;37.74
56737;BME280;42618;51.226;4.910;2023-07-20T12:10:09;49503.72;;;-146.94;37.86
56737;BME280;42618;51.226;4.910;2023-07-20T12:12:43;49459.88;;;-146.94;37.59
56737;BME280;42618;51.226;4.910;2023-07-20T12:17:44;49491.78;;;-146.94;39.11
56737;BME280;42618;51.226;4.910;2023-07-20T12:20:12;49495.75;;;-146.94;38.06
56737;BME280;42618;51.226;4.910;2023-07-20T12:22:40;49455.88;;;-146.94;37.44
56737;BME280;42618;51.226;4.910;2023-07-20T12:25:09;49479.81;;;-146.94;37.46
56737;BME280;42618;51.226;4.910;2023-07-20T12:27:36;49487.78;;;-146.94;37.11
56737;BME280;42618;51.226;4.910;2023-07-20T12:30:07;49467.84;;;-146.94;35.07
56737;BME280;42618;51.226;4.910;2023-07-20T12:32:34;49437.94;;;-146.94;35.14
56737;BME280;42618;51.226;4.910;2023-07-20T12:35:01;49435.97;;;-146.94;35.05
56737;BME280;42618;51.226;4.910;2023-07-20T12:37:28;49439.94;;;-146.94;34.47
56737;BME280;42618;51.226;4.910;2023-07-20T12:39:55;49437.94;;;-146.94;33.65
56737;BME280;42618;51.226;4.910;2023-07-20T12:42:22;49429.97;;;-146.94;33.59
56737;BME280;42618;51.226;4.910;2023-07-20T12:44:49;49463.88;;;-146.94;33.87
56737;BME280;42618;51.226;4.910;2023-07-20T12:47:18;49439.94;;;-146.94;33.96
56737;BME280;42618;51.226;4.910;2023-07-20T12:49:45;49416.03;;;-146.94;35.12
56737;BME280;42618;51.226;4.910;2023-07-20T12:52:13;49471.84;;;-146.94;34.86
56737;BME280;42618;51.226;4.910;2023-07-20T12:54:40;49463.88;;;-146.94;35.32
56737;BME280;42618;51.226;4.910;2023-07-20T12:57:07;49451.91;;;-146.94;36.11
56737;BME280;42618;51.226;4.910;2023-07-20T12:59:36;49439.94;;;-146.94;34.78
56737;BME280;42618;51.226;4.910;2023-07-20T13:02:03;49412.03;;;-146.94;34.64
56737;BME280;42618;51.226;4.910;2023-07-20T13:04:30;49459.88;;;-146.94;34.49
56737;BME280;42618;51.226;4.910;2023-07-20T13:06:57;49463.88;;;-146.94;33.67
56737;BME280;42618;51.226;4.910;2023-07-20T13:09:25;49461.88;;;-146.94;34.05
56737;BME280;42618;51.226;4.910;2023-07-20T13:11:52;49433.97;;;-146.94;33.90